THY155 LTFJ-EGCC
Flight info
| Callsign | THY155 |
|---|---|
| Flight time | N/A |
| Altitude | 40000 |
| Route | TUDBU1K/24R TUDBU DCT ETUBA Q26 UPAMA DCT MOPUG DCT VAJDI DCT DITIS DCT RAPET DCT RUNEN DCT MAPOX DCT ABILU DCT SOGPO DCT PAM DCT PETIK DCT RAVLO Y70 OTBED |
| Aircraft | A343/H-SDE2E3FGHIJ4J5M1RWXY/LB1D1 |
Departure
| Time | 2026-05-05 09:42 |
|---|---|
| Airport | Istanbul Sabiha Gökçen International Airport (LTFJ) |
Arrival
| Time | N/A |
|---|---|
| Airport | Manchester Airport (EGCC) |
| Time | Latitude | Longitude | Altitude | Speed | Heading |
|---|---|---|---|---|---|
| 2026-05-05 09:06 | 40.90611 | 29.31573 | 317 ft | 0 kts | 334° |
| 2026-05-05 09:33 | 40.90610 | 29.31574 | 315 ft | 2 kts | 334° |
| 2026-05-05 09:34 | 40.90588 | 29.31589 | 317 ft | 4 kts | 329° |
| 2026-05-05 09:34 | 40.90566 | 29.31608 | 313 ft | 4 kts | 322° |
| 2026-05-05 09:34 | 40.90546 | 29.31632 | 315 ft | 4 kts | 308° |
| 2026-05-05 09:34 | 40.90535 | 29.31661 | 313 ft | 4 kts | 264° |
| 2026-05-05 09:35 | 40.90536 | 29.31671 | 313 ft | 0 kts | 244° |
| 2026-05-05 09:37 | 40.90527 | 29.31647 | 315 ft | 6 kts | 244° |
| 2026-05-05 09:37 | 40.90506 | 29.31590 | 315 ft | 8 kts | 244° |
| 2026-05-05 09:38 | 40.90480 | 29.31521 | 316 ft | 9 kts | 244° |
| 2026-05-05 09:38 | 40.90449 | 29.31446 | 316 ft | 9 kts | 229° |
| 2026-05-05 09:38 | 40.90395 | 29.31442 | 316 ft | 8 kts | 156° |
| 2026-05-05 09:38 | 40.90341 | 29.31480 | 316 ft | 10 kts | 153° |
| 2026-05-05 09:39 | 40.90298 | 29.31542 | 316 ft | 9 kts | 100° |
| 2026-05-05 09:39 | 40.90322 | 29.31623 | 315 ft | 10 kts | 62° |
| 2026-05-05 09:39 | 40.90357 | 29.31712 | 315 ft | 12 kts | 63° |
| 2026-05-05 09:39 | 40.90395 | 29.31816 | 316 ft | 13 kts | 64° |
| 2026-05-05 09:40 | 40.90438 | 29.31932 | 315 ft | 15 kts | 64° |
| 2026-05-05 09:40 | 40.90485 | 29.32059 | 316 ft | 16 kts | 64° |
| 2026-05-05 09:40 | 40.90537 | 29.32201 | 315 ft | 18 kts | 64° |
| 2026-05-05 09:40 | 40.90587 | 29.32344 | 316 ft | 13 kts | 70° |
| 2026-05-05 09:41 | 40.90550 | 29.32442 | 315 ft | 13 kts | 150° |
| 2026-05-05 09:41 | 40.90494 | 29.32476 | 316 ft | 13 kts | 156° |
| 2026-05-05 09:41 | 40.90417 | 29.32443 | 317 ft | 10 kts | 238° |
| 2026-05-05 09:41 | 40.90395 | 29.32388 | 316 ft | 13 kts | 243° |
| 2026-05-05 09:42 | 40.90295 | 29.32118 | 317 ft | 62 kts | 244° |
| 2026-05-05 09:42 | 40.90018 | 29.31366 | 316 ft | 118 kts | 244° |
| 2026-05-05 09:42 | 40.89594 | 29.30221 | 455 ft | 150 kts | 244° |
| 2026-05-05 09:42 | 40.89145 | 29.28970 | 1052 ft | 152 kts | 246° |
| 2026-05-05 09:43 | 40.88700 | 29.27668 | 1621 ft | 162 kts | 248° |
| 2026-05-05 09:43 | 40.88204 | 29.26219 | 2007 ft | 184 kts | 249° |
| 2026-05-05 09:43 | 40.87650 | 29.24582 | 2429 ft | 206 kts | 247° |
| 2026-05-05 09:43 | 40.87009 | 29.22727 | 2762 ft | 237 kts | 253° |
| 2026-05-05 09:44 | 40.86793 | 29.20518 | 3466 ft | 248 kts | 275° |
| 2026-05-05 09:44 | 40.86956 | 29.18223 | 4539 ft | 254 kts | 281° |
| 2026-05-05 09:44 | 40.87192 | 29.15890 | 5694 ft | 257 kts | 282° |
| 2026-05-05 09:44 | 40.87450 | 29.13526 | 6704 ft | 262 kts | 282° |
| 2026-05-05 09:45 | 40.87723 | 29.11118 | 7617 ft | 268 kts | 282° |
| 2026-05-05 09:45 | 40.87999 | 29.08694 | 8494 ft | 273 kts | 282° |
| 2026-05-05 09:45 | 40.88284 | 29.06192 | 9390 ft | 277 kts | 283° |
| 2026-05-05 09:45 | 40.88573 | 29.03657 | 10247 ft | 283 kts | 283° |
| 2026-05-05 09:46 | 40.88877 | 29.01002 | 10672 ft | 302 kts | 282° |
| 2026-05-05 09:46 | 40.89202 | 28.98164 | 11019 ft | 322 kts | 282° |
| 2026-05-05 09:46 | 40.89538 | 28.95188 | 11538 ft | 333 kts | 282° |
| 2026-05-05 09:46 | 40.89881 | 28.92129 | 12219 ft | 340 kts | 282° |
| 2026-05-05 09:47 | 40.90229 | 28.89009 | 12931 ft | 346 kts | 282° |
| 2026-05-05 09:47 | 40.90583 | 28.85841 | 13655 ft | 351 kts | 282° |
| 2026-05-05 09:47 | 40.90942 | 28.82623 | 14352 ft | 356 kts | 282° |
| 2026-05-05 09:47 | 40.91304 | 28.79369 | 15053 ft | 359 kts | 282° |
| 2026-05-05 09:48 | 40.91668 | 28.76090 | 15784 ft | 362 kts | 282° |
| 2026-05-05 09:48 | 40.92036 | 28.72772 | 16510 ft | 365 kts | 281° |
| 2026-05-05 09:48 | 40.92399 | 28.69482 | 17222 ft | 368 kts | 281° |
| 2026-05-05 09:48 | 40.92770 | 28.66119 | 17931 ft | 372 kts | 282° |
| 2026-05-05 09:49 | 40.93144 | 28.62717 | 18610 ft | 375 kts | 282° |
| 2026-05-05 09:49 | 40.93520 | 28.59294 | 19249 ft | 377 kts | 282° |
| 2026-05-05 09:49 | 40.93897 | 28.55847 | 19895 ft | 379 kts | 281° |
| 2026-05-05 09:49 | 40.94369 | 28.52418 | 20538 ft | 379 kts | 288° |
| 2026-05-05 09:50 | 40.95309 | 28.49169 | 21170 ft | 378 kts | 300° |
| 2026-05-05 09:50 | 40.96849 | 28.46370 | 21762 ft | 378 kts | 316° |
| 2026-05-05 09:50 | 40.98957 | 28.44294 | 22353 ft | 380 kts | 330° |
| 2026-05-05 09:50 | 41.01301 | 28.42639 | 22896 ft | 384 kts | 332° |
| 2026-05-05 09:51 | 41.03702 | 28.41034 | 23430 ft | 388 kts | 332° |
| 2026-05-05 09:51 | 41.06126 | 28.39418 | 23865 ft | 392 kts | 332° |
| 2026-05-05 09:51 | 41.08572 | 28.37783 | 24049 ft | 394 kts | 332° |
| 2026-05-05 09:51 | 41.11016 | 28.36143 | 24065 ft | 393 kts | 332° |
| 2026-05-05 09:52 | 41.13456 | 28.34501 | 24077 ft | 393 kts | 333° |
| 2026-05-05 09:52 | 41.15897 | 28.32861 | 24069 ft | 393 kts | 333° |
| 2026-05-05 09:52 | 41.18339 | 28.31218 | 24076 ft | 393 kts | 333° |
| 2026-05-05 09:52 | 41.20780 | 28.29573 | 24063 ft | 393 kts | 333° |
| 2026-05-05 09:53 | 41.23219 | 28.27928 | 24070 ft | 393 kts | 333° |
| 2026-05-05 09:53 | 41.25630 | 28.26301 | 24073 ft | 393 kts | 333° |
| 2026-05-05 09:53 | 41.28069 | 28.24652 | 24073 ft | 393 kts | 333° |
| 2026-05-05 09:53 | 41.30515 | 28.22997 | 24173 ft | 395 kts | 333° |
| 2026-05-05 09:54 | 41.40193 | 28.16436 | 25946 ft | 403 kts | 333° |